createdAt,value
2018-12-21T00:01:23.305Z,11.72
2018-12-21T00:03:51.719Z,11.90
2018-12-21T00:06:20.090Z,12.04
2018-12-21T00:08:48.543Z,11.77
2018-12-21T00:11:16.936Z,11.70
2018-12-21T00:13:45.224Z,11.43
2018-12-21T00:16:13.614Z,11.38
2018-12-21T00:18:42.553Z,11.01
2018-12-21T00:21:10.947Z,11.24
2018-12-21T00:23:39.226Z,10.85
2018-12-21T00:26:07.638Z,11.19
2018-12-21T00:28:35.912Z,11.04
2018-12-21T00:31:09.487Z,11.24
2018-12-21T00:33:43.349Z,11.36
2018-12-21T00:36:17.064Z,11.06
2018-12-21T00:38:50.749Z,11.19
2018-12-21T00:41:18.217Z,11.48
2018-12-21T00:44:49.935Z,11.04
2018-12-21T00:47:19.074Z,11.85
2018-12-21T00:49:47.433Z,11.04
2018-12-21T00:52:15.860Z,11.32
2018-12-21T00:54:44.162Z,11.74
2018-12-21T00:57:12.622Z,11.69
2018-12-21T00:59:40.869Z,11.46
2018-12-21T01:02:09.300Z,11.21
2018-12-21T01:04:37.589Z,11.60
2018-12-21T01:07:05.892Z,12.05
2018-12-21T01:09:35.266Z,11.98
2018-12-21T01:12:03.807Z,11.82
2018-12-21T01:14:32.370Z,11.81
2018-12-21T01:17:00.690Z,11.69
2018-12-21T01:19:29.295Z,11.14
2018-12-21T01:21:57.690Z,11.45
2018-12-21T01:24:26.366Z,11.30
2018-12-21T01:26:54.710Z,11.39
2018-12-21T01:29:22.988Z,11.67
2018-12-21T01:31:51.249Z,11.00
2018-12-21T01:34:19.727Z,11.16
2018-12-21T01:36:48.059Z,11.27
2018-12-21T01:39:16.519Z,11.48
2018-12-21T01:41:45.091Z,11.08
2018-12-21T01:44:13.481Z,11.25
2018-12-21T01:46:41.852Z,11.51
2018-12-21T01:49:10.220Z,11.22
2018-12-21T01:51:46.900Z,11.38
2018-12-21T01:54:08.828Z,11.39
2018-12-21T01:56:37.180Z,11.13
2018-12-21T01:59:05.457Z,11.18
2018-12-21T02:01:33.892Z,11.68
2018-12-21T02:04:02.241Z,12.08
2018-12-21T02:06:30.646Z,12.18
2018-12-21T02:08:59.230Z,11.60
2018-12-21T02:11:27.555Z,11.95
2018-12-21T02:13:56.589Z,12.36
2018-12-21T02:16:25.014Z,12.23
2018-12-21T02:18:53.396Z,12.02
2018-12-21T02:21:21.813Z,12.14
2018-12-21T02:23:50.099Z,12.33
2018-12-21T02:26:18.475Z,12.17
2018-12-21T02:28:46.952Z,11.94
2018-12-21T02:31:15.371Z,12.33
2018-12-21T02:33:43.653Z,12.47
2018-12-21T02:36:11.936Z,11.81
2018-12-21T02:38:40.165Z,11.73
2018-12-21T02:41:08.419Z,12.18
2018-12-21T02:43:36.738Z,12.06
2018-12-21T02:46:05.066Z,11.88
2018-12-21T02:48:33.987Z,11.90
2018-12-21T02:51:02.465Z,11.87
2018-12-21T02:53:30.772Z,12.10
2018-12-21T02:55:59.135Z,12.48
2018-12-21T02:58:27.612Z,11.72
2018-12-21T03:00:56.202Z,11.83
2018-12-21T03:03:25.005Z,12.45
2018-12-21T03:05:53.348Z,12.18
2018-12-21T03:08:21.642Z,11.89
2018-12-21T03:10:50.068Z,12.45
2018-12-21T03:13:18.366Z,12.50
2018-12-21T03:15:46.635Z,12.66
2018-12-21T03:18:14.926Z,12.21
2018-12-21T03:20:43.282Z,12.04
2018-12-21T03:23:11.564Z,12.10
2018-12-21T03:25:39.838Z,12.37
2018-12-21T03:28:08.162Z,12.14
2018-12-21T03:30:36.503Z,12.09
2018-12-21T03:33:04.904Z,12.51
2018-12-21T03:35:33.387Z,11.85
2018-12-21T03:38:02.596Z,11.97
2018-12-21T03:40:31.723Z,11.94
2018-12-21T03:43:00.094Z,12.07
2018-12-21T03:45:28.447Z,11.98
2018-12-21T03:47:56.725Z,12.05
2018-12-21T03:50:25.079Z,12.10
2018-12-21T03:52:53.454Z,11.87
2018-12-21T03:55:22.064Z,11.83
2018-12-21T03:57:50.450Z,12.21
2018-12-21T04:00:18.752Z,11.69
2018-12-21T04:02:47.181Z,12.31
2018-12-21T04:05:15.580Z,11.71
2018-12-21T04:07:43.855Z,12.05
2018-12-21T04:10:12.375Z,12.10
2018-12-21T04:12:40.721Z,11.92
2018-12-21T04:15:09.081Z,12.06
2018-12-21T04:17:37.597Z,11.91
2018-12-21T04:20:05.989Z,12.49
2018-12-21T04:22:34.650Z,11.90
2018-12-21T04:25:03.453Z,11.69
2018-12-21T04:27:31.794Z,11.98
2018-12-21T04:30:00.071Z,12.10
2018-12-21T04:32:28.451Z,11.70
2018-12-21T04:34:56.801Z,12.36
2018-12-21T04:37:25.230Z,11.91
2018-12-21T04:39:53.596Z,11.70
2018-12-21T04:42:22.603Z,12.23
2018-12-21T04:44:50.917Z,12.07
2018-12-21T04:47:19.403Z,11.92
2018-12-21T04:49:47.779Z,12.48
2018-12-21T04:52:16.056Z,11.86
2018-12-21T04:54:44.526Z,11.88
2018-12-21T04:57:12.956Z,12.36
2018-12-21T04:59:41.247Z,11.91
2018-12-21T05:02:09.678Z,12.18
2018-12-21T05:04:38.053Z,11.98
2018-12-21T05:07:12.400Z,11.87
2018-12-21T05:09:37.006Z,11.96
2018-12-21T05:12:05.459Z,11.79
2018-12-21T05:14:33.915Z,12.32
2018-12-21T05:17:02.152Z,12.11
2018-12-21T05:19:30.853Z,12.59
2018-12-21T05:21:59.293Z,12.92
2018-12-21T05:24:27.597Z,13.35
2018-12-21T05:26:55.950Z,12.80
2018-12-21T05:29:24.214Z,12.43
2018-12-21T05:31:52.529Z,12.77
2018-12-21T05:34:20.842Z,13.07
2018-12-21T05:36:49.283Z,12.11
2018-12-21T05:39:17.534Z,12.53
2018-12-21T05:41:45.989Z,12.66
2018-12-21T05:44:14.307Z,12.77
2018-12-21T05:46:42.685Z,12.97
2018-12-21T05:49:11.041Z,13.05
2018-12-21T05:51:39.477Z,12.69
2018-12-21T05:54:07.835Z,12.73
2018-12-21T05:56:36.352Z,12.63
2018-12-21T05:59:04.775Z,13.13
2018-12-21T06:01:33.356Z,12.83
2018-12-21T06:04:01.827Z,12.81
2018-12-21T06:06:30.155Z,12.32
2018-12-21T06:08:58.604Z,12.57
2018-12-21T06:11:26.928Z,12.58
2018-12-21T06:13:55.300Z,12.37
2018-12-21T06:16:23.731Z,12.70
2018-12-21T06:18:52.246Z,13.25
2018-12-21T06:21:20.625Z,12.65
2018-12-21T06:23:48.972Z,12.28
2018-12-21T06:26:17.260Z,12.35
2018-12-21T06:28:45.659Z,12.65
2018-12-21T06:31:15.199Z,12.53
2018-12-21T06:33:43.515Z,12.75
2018-12-21T06:36:12.100Z,12.61
2018-12-21T06:38:40.527Z,12.57
2018-12-21T06:41:08.785Z,12.71
2018-12-21T06:43:37.169Z,12.48
2018-12-21T06:46:13.953Z,12.61
2018-12-21T06:48:36.302Z,12.83
2018-12-21T06:51:04.598Z,12.70
2018-12-21T06:53:32.950Z,12.58
2018-12-21T06:56:01.402Z,12.36
2018-12-21T06:58:29.778Z,12.02
2018-12-21T07:00:58.075Z,11.83
2018-12-21T07:03:26.515Z,12.02
2018-12-21T07:05:55.047Z,12.45
2018-12-21T07:08:23.346Z,12.49
2018-12-21T07:10:51.680Z,11.99
2018-12-21T07:13:20.097Z,12.60
2018-12-21T07:15:52.958Z,12.02
2018-12-21T07:18:24.830Z,12.16
2018-12-21T07:20:58.210Z,12.39
2018-12-21T07:23:39.316Z,11.99
2018-12-21T07:26:10.193Z,12.30
2018-12-21T07:28:40.516Z,11.76
2018-12-21T07:31:11.878Z,12.23
2018-12-21T07:33:43.751Z,12.16
2018-12-21T07:36:14.797Z,11.91
2018-12-21T07:38:44.881Z,11.49
2018-12-21T07:41:16.705Z,11.66
2018-12-21T07:43:46.882Z,11.30
2018-12-21T07:46:18.864Z,11.87
2018-12-21T07:48:51.339Z,12.00
2018-12-21T07:51:22.753Z,11.94
2018-12-21T07:53:55.333Z,12.19
2018-12-21T07:56:26.952Z,11.65
2018-12-21T07:58:57.416Z,11.27
2018-12-21T08:01:25.711Z,11.80
2018-12-21T08:03:53.965Z,11.51
2018-12-21T08:06:22.410Z,11.34
2018-12-21T08:08:50.703Z,11.82
2018-12-21T08:11:19.074Z,11.48
2018-12-21T08:13:47.370Z,11.37
2018-12-21T08:16:15.730Z,11.25
2018-12-21T08:18:44.020Z,11.09
2018-12-21T08:21:12.415Z,11.27
2018-12-21T08:23:44.413Z,11.32
2018-12-21T08:26:11.110Z,11.37
2018-12-21T08:28:39.425Z,11.56
2018-12-21T08:31:07.758Z,11.80
2018-12-21T08:33:36.044Z,11.34
2018-12-21T08:36:04.359Z,11.61
2018-12-21T08:38:32.648Z,11.45
2018-12-21T08:41:01.039Z,12.02
2018-12-21T08:43:29.359Z,11.38
2018-12-21T08:45:57.662Z,11.41
2018-12-21T08:48:29.676Z,11.47
2018-12-21T08:51:02.848Z,11.50
2018-12-21T08:53:37.377Z,11.86
2018-12-21T08:59:10.359Z,11.67
2018-12-21T09:01:41.077Z,11.79
2018-12-21T09:04:10.265Z,11.33
2018-12-21T09:06:48.098Z,11.67
2018-12-21T09:09:19.821Z,11.63
2018-12-21T09:11:48.364Z,11.55
2018-12-21T09:14:20.894Z,11.61
2018-12-21T09:16:53.795Z,11.82
2018-12-21T09:19:24.300Z,11.81
2018-12-21T09:21:54.334Z,11.20
2018-12-21T09:24:26.498Z,11.47
2018-12-21T09:26:56.354Z,12.02
2018-12-21T09:29:28.836Z,11.82
2018-12-21T09:32:04.994Z,11.64
2018-12-21T09:34:34.247Z,11.96
2018-12-21T09:37:07.062Z,12.41
2018-12-21T09:39:36.423Z,12.65
2018-12-21T09:42:07.599Z,11.69
2018-12-21T09:44:41.855Z,12.17
2018-12-21T09:47:15.096Z,11.91
2018-12-21T09:49:46.475Z,12.48
2018-12-21T09:52:20.763Z,12.07
2018-12-21T09:54:53.952Z,12.26
2018-12-21T09:57:38.583Z,12.21
2018-12-21T10:00:10.282Z,12.55
2018-12-21T10:02:38.671Z,12.07
2018-12-21T10:05:09.259Z,12.07
2018-12-21T10:07:37.677Z,12.86
2018-12-21T10:10:06.282Z,12.36
2018-12-21T10:12:34.618Z,12.17
2018-12-21T10:15:03.048Z,11.91
2018-12-21T10:17:31.345Z,12.51
2018-12-21T10:20:00.132Z,12.10
2018-12-21T10:22:28.498Z,12.26
2018-12-21T10:24:56.982Z,12.32
2018-12-21T10:27:25.429Z,12.59
2018-12-21T10:29:53.795Z,12.18
2018-12-21T10:32:22.204Z,12.58
2018-12-21T10:34:50.703Z,12.66
2018-12-21T10:37:19.212Z,12.58
2018-12-21T10:39:47.598Z,12.85
2018-12-21T10:42:16.160Z,12.66
2018-12-21T10:44:44.469Z,12.48
2018-12-21T10:47:12.810Z,12.75
2018-12-21T10:49:42.211Z,13.09
2018-12-21T10:52:10.732Z,13.09
2018-12-21T10:54:39.098Z,13.16
2018-12-21T10:57:07.480Z,12.92
2018-12-21T10:59:43.164Z,13.05
2018-12-21T11:02:06.146Z,12.86
2018-12-21T11:04:34.463Z,12.46
2018-12-21T11:07:02.896Z,12.63
2018-12-21T11:09:31.192Z,12.68
2018-12-21T11:11:59.538Z,12.34
2018-12-21T11:14:28.367Z,12.98
2018-12-21T11:16:56.797Z,12.02
2018-12-21T11:19:25.853Z,12.39
2018-12-21T11:21:54.172Z,12.59
2018-12-21T11:24:22.527Z,13.33
2018-12-21T11:26:51.076Z,13.46
2018-12-21T11:29:19.435Z,13.11
2018-12-21T11:31:47.730Z,13.18
2018-12-21T11:34:16.101Z,13.14
2018-12-21T11:36:44.360Z,12.56
2018-12-21T11:39:12.760Z,13.06
2018-12-21T11:41:41.737Z,13.32
2018-12-21T11:44:10.158Z,13.08
2018-12-21T11:46:38.631Z,13.39
2018-12-21T11:49:06.912Z,13.03
2018-12-21T11:51:35.204Z,13.36
2018-12-21T11:54:03.756Z,13.29
2018-12-21T11:56:32.038Z,13.99
2018-12-21T11:59:00.430Z,13.37
2018-12-21T12:01:28.795Z,14.04
2018-12-21T12:03:57.058Z,13.41
2018-12-21T12:06:25.552Z,13.81
2018-12-21T12:08:53.947Z,13.81
2018-12-21T12:11:22.232Z,13.31
2018-12-21T12:13:50.575Z,14.07
2018-12-21T12:16:18.852Z,14.35
2018-12-21T12:18:47.129Z,13.68
2018-12-21T12:21:15.623Z,13.84
2018-12-21T12:23:44.014Z,13.62
2018-12-21T12:26:12.438Z,14.24
2018-12-21T12:28:40.694Z,13.93
2018-12-21T12:31:09.120Z,13.75
2018-12-21T12:33:37.400Z,13.89
2018-12-21T12:36:05.809Z,14.30
2018-12-21T12:38:34.121Z,14.43
2018-12-21T12:41:06.531Z,14.54
2018-12-21T12:43:32.949Z,14.55
2018-12-21T12:46:01.647Z,14.06
2018-12-21T12:48:30.039Z,14.25
2018-12-21T12:50:58.646Z,14.16
2018-12-21T12:53:27.108Z,14.40
2018-12-21T12:55:55.406Z,15.04
2018-12-21T12:58:23.728Z,14.22
2018-12-21T13:00:52.291Z,14.77
2018-12-21T13:03:20.766Z,14.43
2018-12-21T13:05:49.201Z,14.09
2018-12-21T13:08:17.449Z,14.01
2018-12-21T13:10:45.784Z,14.52
2018-12-21T13:13:14.068Z,14.92
2018-12-21T13:15:42.526Z,15.34
2018-12-21T13:18:10.923Z,14.86
2018-12-21T13:20:39.256Z,15.00
2018-12-21T13:23:07.737Z,14.83
2018-12-21T13:25:36.194Z,14.35
2018-12-21T13:28:04.506Z,14.69
2018-12-21T13:30:32.990Z,15.81
2018-12-21T13:33:01.416Z,14.93
2018-12-21T13:35:29.989Z,15.10
2018-12-21T13:37:58.296Z,14.84
2018-12-21T13:40:26.633Z,14.72
2018-12-21T13:42:55.006Z,14.86
2018-12-21T13:45:23.270Z,14.86
2018-12-21T13:47:51.581Z,15.00
2018-12-21T13:50:19.847Z,14.44
2018-12-21T13:52:48.568Z,14.24
2018-12-21T13:55:20.588Z,14.65
2018-12-21T13:57:47.172Z,14.69
2018-12-21T14:00:15.488Z,14.39
2018-12-21T14:02:43.798Z,14.55
2018-12-21T14:05:12.218Z,14.54
2018-12-21T14:07:40.718Z,14.61
2018-12-21T14:10:11.553Z,14.42
2018-12-21T14:12:39.927Z,14.49
2018-12-21T14:15:09.027Z,14.53
2018-12-21T14:17:37.310Z,15.17
2018-12-21T14:20:08.878Z,15.39
2018-12-21T14:22:37.802Z,14.64
2018-12-21T14:25:07.142Z,14.58
2018-12-21T14:27:36.052Z,14.61
2018-12-21T14:30:05.354Z,14.99
2018-12-21T14:32:33.651Z,14.45
2018-12-21T14:35:02.488Z,14.34
2018-12-21T14:37:30.760Z,14.66
2018-12-21T14:39:59.052Z,14.20
2018-12-21T14:42:27.311Z,14.10
2018-12-21T14:44:55.612Z,14.44
2018-12-21T14:47:24.035Z,14.27
2018-12-21T14:49:52.349Z,14.98
2018-12-21T14:52:20.755Z,14.85
2018-12-21T14:54:49.123Z,14.24
2018-12-21T14:57:17.480Z,14.93
2018-12-21T14:59:45.863Z,14.38
2018-12-21T15:02:14.262Z,14.27
2018-12-21T15:04:42.530Z,14.29
2018-12-21T15:07:10.856Z,14.73
2018-12-21T15:09:39.196Z,15.01
2018-12-21T15:12:07.513Z,14.63
2018-12-21T15:14:35.835Z,14.61
2018-12-21T15:17:04.361Z,14.38
2018-12-21T15:19:32.657Z,14.24
2018-12-21T15:22:01.018Z,14.84
2018-12-21T15:24:29.382Z,15.04
2018-12-21T15:26:57.792Z,14.81
2018-12-21T15:29:26.330Z,14.48
2018-12-21T15:31:54.814Z,14.46
2018-12-21T15:34:23.333Z,14.29
2018-12-21T15:36:52.238Z,14.23
2018-12-21T15:39:20.490Z,14.68
2018-12-21T15:41:49.145Z,14.81
2018-12-21T15:44:17.536Z,14.24
2018-12-21T15:46:45.900Z,15.10
2018-12-21T15:49:14.466Z,14.56
2018-12-21T15:51:42.935Z,14.54
2018-12-21T15:54:11.235Z,14.75
2018-12-21T15:56:39.694Z,14.18
2018-12-21T15:59:08.167Z,14.51
2018-12-21T16:01:37.097Z,14.40
2018-12-21T16:04:05.648Z,14.70
2018-12-21T16:06:35.671Z,14.71
2018-12-21T16:09:05.843Z,14.76
2018-12-21T16:11:34.625Z,14.55
2018-12-21T16:14:03.100Z,14.43
2018-12-21T16:16:31.507Z,14.88
2018-12-21T16:18:59.806Z,14.59
2018-12-21T16:21:28.236Z,14.93
2018-12-21T16:23:56.683Z,14.90
2018-12-21T16:26:25.081Z,15.20
2018-12-21T16:28:53.419Z,15.31
2018-12-21T16:31:21.743Z,14.82
2018-12-21T16:33:50.062Z,15.06
2018-12-21T16:36:18.489Z,15.06
2018-12-21T16:38:46.785Z,15.30
2018-12-21T16:41:15.101Z,15.02
2018-12-21T16:43:43.423Z,14.95
2018-12-21T16:46:11.715Z,14.78
2018-12-21T16:48:40.097Z,15.08
2018-12-21T16:51:08.515Z,15.50
2018-12-21T16:53:36.963Z,14.99
2018-12-21T16:56:12.412Z,15.20
2018-12-21T16:58:35.914Z,15.21
2018-12-21T17:01:04.353Z,15.27
2018-12-21T17:03:32.740Z,14.82
2018-12-21T17:06:01.106Z,15.36
2018-12-21T17:08:29.394Z,15.15
2018-12-21T17:10:58.078Z,15.03
2018-12-21T17:13:26.440Z,15.03
2018-12-21T17:15:54.691Z,15.47
2018-12-21T17:18:25.495Z,16.03
2018-12-21T17:20:53.808Z,15.60
2018-12-21T17:23:22.299Z,15.63
2018-12-21T17:25:50.719Z,15.41
2018-12-21T17:28:19.110Z,15.02
2018-12-21T17:30:47.775Z,15.56
2018-12-21T17:33:16.206Z,15.64
2018-12-21T17:35:44.584Z,15.88
2018-12-21T17:38:13.218Z,15.59
2018-12-21T17:40:41.666Z,15.48
2018-12-21T17:43:10.067Z,15.39
2018-12-21T17:45:38.377Z,15.78
2018-12-21T17:48:06.831Z,15.70
2018-12-21T17:50:35.147Z,15.57
2018-12-21T17:53:03.592Z,16.46
2018-12-21T17:55:32.013Z,15.46
2018-12-21T17:58:00.481Z,15.94
2018-12-21T18:00:28.825Z,15.63
2018-12-21T18:02:57.989Z,16.32
2018-12-21T18:05:26.689Z,15.35
2018-12-21T18:07:56.178Z,15.25
2018-12-21T18:10:24.566Z,15.75
2018-12-21T18:12:53.563Z,15.71
2018-12-21T18:15:21.828Z,15.40
2018-12-21T18:17:50.214Z,15.76
2018-12-21T18:20:18.522Z,15.82
2018-12-21T18:22:47.762Z,15.22
2018-12-21T18:25:20.148Z,15.61
2018-12-21T18:27:51.264Z,15.70
2018-12-21T18:30:24.983Z,15.51
2018-12-21T18:32:53.256Z,16.16
2018-12-21T18:35:21.683Z,15.73
2018-12-21T18:37:57.026Z,15.61
2018-12-21T18:40:25.589Z,16.32
2018-12-21T18:42:54.122Z,15.72
2018-12-21T18:45:22.409Z,15.36
2018-12-21T18:47:50.828Z,15.57
2018-12-21T18:50:19.146Z,15.38
2018-12-21T18:52:47.463Z,16.35
2018-12-21T18:55:17.184Z,15.10
2018-12-21T18:57:45.715Z,15.38
2018-12-21T19:00:16.379Z,15.45
2018-12-21T19:02:44.985Z,15.29
2018-12-21T19:05:13.679Z,15.24
2018-12-21T19:07:42.275Z,15.50
2018-12-21T19:10:11.463Z,15.51
2018-12-21T19:12:40.783Z,15.49
2018-12-21T19:15:11.232Z,15.17
2018-12-21T19:17:40.025Z,14.98
2018-12-21T19:20:10.951Z,15.56
2018-12-21T19:22:39.759Z,15.04
2018-12-21T19:25:10.146Z,15.50
2018-12-21T19:27:38.553Z,15.73
2018-12-21T19:30:11.702Z,15.64
2018-12-21T19:32:41.734Z,15.23
2018-12-21T19:35:11.180Z,15.48
2018-12-21T19:37:39.525Z,15.07
2018-12-21T19:40:09.550Z,15.47
2018-12-21T19:42:38.436Z,15.51
2018-12-21T19:45:09.102Z,15.57
2018-12-21T19:47:37.571Z,14.83
2018-12-21T19:50:07.756Z,14.83
2018-12-21T19:52:36.118Z,14.81
2018-12-21T19:55:19.892Z,14.68
2018-12-21T19:57:48.337Z,15.05
2018-12-21T20:00:16.874Z,14.65
2018-12-21T20:02:45.336Z,15.45
2018-12-21T20:05:13.657Z,15.19
2018-12-21T20:07:41.961Z,15.17
2018-12-21T20:10:11.245Z,14.99
2018-12-21T20:12:39.563Z,15.07
2018-12-21T20:15:08.176Z,15.29
2018-12-21T20:17:36.751Z,15.01
2018-12-21T20:20:06.131Z,15.69
2018-12-21T20:22:34.448Z,15.53
2018-12-21T20:25:02.817Z,15.28
2018-12-21T20:27:31.230Z,14.75
2018-12-21T20:29:59.824Z,15.30
2018-12-21T20:32:28.210Z,15.57
2018-12-21T20:34:56.864Z,15.39
2018-12-21T20:37:25.317Z,15.35
2018-12-21T20:39:53.631Z,15.27
2018-12-21T20:42:22.113Z,15.64
2018-12-21T20:44:50.599Z,14.86
2018-12-21T20:47:19.230Z,15.41
2018-12-21T20:49:47.781Z,15.69
2018-12-21T20:52:16.110Z,15.45
2018-12-21T20:54:44.676Z,15.68
2018-12-21T20:57:21.659Z,15.85
2018-12-21T20:59:45.078Z,15.77
2018-12-21T21:02:13.449Z,15.90
2018-12-21T21:04:41.906Z,15.73
2018-12-21T21:07:10.309Z,15.46
2018-12-21T21:09:39.224Z,15.42
2018-12-21T21:12:07.676Z,15.69
2018-12-21T21:14:36.220Z,15.89
2018-12-21T21:17:04.519Z,15.33
2018-12-21T21:19:36.540Z,15.58
2018-12-21T21:22:04.895Z,15.66
2018-12-21T21:24:33.334Z,15.26
2018-12-21T21:27:01.649Z,15.07
2018-12-21T21:29:29.963Z,15.01
2018-12-21T21:31:58.960Z,15.23
2018-12-21T21:34:27.530Z,15.30
2018-12-21T21:36:56.525Z,15.29
2018-12-21T21:39:24.842Z,15.40
2018-12-21T21:41:53.850Z,15.61
2018-12-21T21:44:22.280Z,15.62
2018-12-21T21:46:50.713Z,15.85
2018-12-21T21:49:19.546Z,16.05
2018-12-21T21:51:48.010Z,15.79
2018-12-21T21:54:17.032Z,16.08
2018-12-21T21:56:45.424Z,15.47
2018-12-21T21:59:13.775Z,15.79
2018-12-21T22:01:42.345Z,15.79
2018-12-21T22:04:10.754Z,15.49
2018-12-21T22:06:39.258Z,14.97
2018-12-21T22:09:07.661Z,15.25
2018-12-21T22:11:36.037Z,15.96
2018-12-21T22:14:04.471Z,15.66
2018-12-21T22:16:32.800Z,16.42
2018-12-21T22:19:01.286Z,15.68
2018-12-21T22:21:29.569Z,15.54
2018-12-21T22:23:57.876Z,15.41
2018-12-21T22:26:27.887Z,15.64
2018-12-21T22:28:57.313Z,16.52
2018-12-21T22:31:26.190Z,16.01
2018-12-21T22:33:54.983Z,16.04
2018-12-21T22:36:23.587Z,16.27
2018-12-21T22:38:52.253Z,16.23
2018-12-21T22:41:20.745Z,16.21
2018-12-21T22:43:49.087Z,16.28
2018-12-21T22:46:17.459Z,15.66
2018-12-21T22:48:45.811Z,16.05
2018-12-21T22:51:14.157Z,16.13
2018-12-21T22:53:42.516Z,16.24
2018-12-21T22:56:10.881Z,16.15
2018-12-21T22:58:39.519Z,16.15
2018-12-21T23:01:08.270Z,15.91
2018-12-21T23:03:36.544Z,15.40
2018-12-21T23:06:05.016Z,15.73
2018-12-21T23:08:33.554Z,16.23
2018-12-21T23:11:01.956Z,16.21
2018-12-21T23:13:30.332Z,16.60
2018-12-21T23:15:58.778Z,16.04
2018-12-21T23:18:27.105Z,15.65
2018-12-21T23:20:55.477Z,16.15
2018-12-21T23:23:24.129Z,15.97
2018-12-21T23:25:52.432Z,15.32
2018-12-21T23:28:20.816Z,16.08
2018-12-21T23:30:49.284Z,16.22
2018-12-21T23:33:17.572Z,16.31
2018-12-21T23:35:45.956Z,16.00
2018-12-21T23:38:14.506Z,17.06
2018-12-21T23:40:44.146Z,17.07
2018-12-21T23:43:12.653Z,17.65
2018-12-21T23:45:42.837Z,16.99
2018-12-21T23:48:12.090Z,17.89
2018-12-21T23:50:41.294Z,17.63
2018-12-21T23:53:09.742Z,17.43
2018-12-21T23:55:38.920Z,16.84
2018-12-21T23:58:13.694Z,16.57
